Time;durP1;ratioP1;P1;durP2;ratioP2;P2;SDS_P1;SDS_P2;PMS_P1;PMS_P2;Temp;Humidity;BMP_temperature;BMP_pressure;BME280_temperature;BME280_humidity;BME280_pressure;Samples;Min_cycle;Max_cycle;Signal;HPM_P1;HPM_P2
2022/03/21 00:02:26;;;;;;;63.60;43.27;;;;;;;;;;6157185;23;20180;-91
2022/03/21 00:04:55;;;;;;;68.43;51.80;;;;;;;;;;6156348;23;20234;-90
2022/03/21 00:07:35;;;;;;;57.53;41.97;;;;;;;;;;6156693;23;20175;-91
2022/03/21 00:10:04;;;;;;;44.43;33.60;;;;;;;;;;6156970;23;20207;-89
2022/03/21 00:12:33;;;;;;;43.60;29.50;;;;;;;;;;6156429;23;20266;-90
2022/03/21 00:15:02;;;;;;;47.27;33.13;;;;;;;;;;6156782;23;20191;-90
2022/03/21 00:17:34;;;;;;;63.90;47.30;;;;;;;;;;6156630;23;20182;-90
2022/03/21 00:20:02;;;;;;;55.70;42.97;;;;;;;;;;6156487;23;20200;-91
2022/03/21 00:22:31;;;;;;;7.70;6.70;;;;;;;;;;6156712;23;20270;-90
2022/03/21 00:24:59;;;;;;;33.60;27.63;;;;;;;;;;6156525;23;20188;-90
2022/03/21 00:27:28;;;;;;;54.73;44.27;;;;;;;;;;6156573;23;20199;-91
2022/03/21 00:29:56;;;;;;;57.30;51.20;;;;;;;;;;6156940;23;20259;-88
2022/03/21 00:32:25;;;;;;;53.13;38.60;;;;;;;;;;6155622;23;20176;-90
2022/03/21 00:34:55;;;;;;;14.60;12.47;;;;;;;;;;6156447;23;20178;-90
2022/03/21 00:37:24;;;;;;;42.00;28.97;;;;;;;;;;6156650;23;20203;-90
2022/03/21 00:39:55;;;;;;;53.77;45.73;;;;;;;;;;6156272;23;20192;-90
2022/03/21 00:42:25;;;;;;;58.43;45.77;;;;;;;;;;6179202;23;20232;-89
2022/03/21 00:44:56;;;;;;;51.20;37.53;;;;;;;;;;6161777;23;20229;-90
2022/03/21 00:47:27;;;;;;;42.50;33.43;;;;;;;;;;6161195;23;20258;-90
2022/03/21 00:49:57;;;;;;;48.83;38.27;;;;;;;;;;6161448;23;20237;-88
2022/03/21 00:52:26;;;;;;;48.40;38.30;;;;;;;;;;6160607;23;20182;-90
2022/03/21 00:54:54;;;;;;;47.17;37.00;;;;;;;;;;6161430;23;20178;-90
2022/03/21 00:57:23;;;;;;;57.57;48.60;;;;;;;;;;6161292;23;20174;-91
2022/03/21 00:59:53;;;;;;;56.43;40.40;;;;;;;;;;6160910;23;20218;-90
2022/03/21 01:02:22;;;;;;;46.17;31.00;;;;;;;;;;6160674;23;20175;-90
2022/03/21 01:04:51;;;;;;;24.57;18.13;;;;;;;;;;6161265;23;20202;-90
2022/03/21 01:07:21;;;;;;;15.60;12.83;;;;;;;;;;6160429;23;20175;-91
2022/03/21 01:09:49;;;;;;;42.93;27.60;;;;;;;;;;6160939;23;20194;-92
2022/03/21 01:12:18;;;;;;;44.57;28.23;;;;;;;;;;6160723;23;20265;-91
2022/03/21 01:14:46;;;;;;;40.20;28.80;;;;;;;;;;6186670;23;20183;-92
2022/03/21 01:17:15;;;;;;;48.93;30.33;;;;;;;;;;6186718;23;20163;-91
2022/03/21 01:19:43;;;;;;;48.77;34.80;;;;;;;;;;6161169;23;20206;-91
2022/03/21 01:22:13;;;;;;;3.13;3.03;;;;;;;;;;6161178;23;20265;-90
2022/03/21 01:24:43;;;;;;;23.03;18.63;;;;;;;;;;6160927;23;20175;-91
2022/03/21 01:27:11;;;;;;;34.13;23.93;;;;;;;;;;6186455;23;20178;-91
2022/03/21 01:29:40;;;;;;;54.27;38.97;;;;;;;;;;6161735;23;20198;-91
2022/03/21 01:32:09;;;;;;;52.43;37.53;;;;;;;;;;6160658;23;20179;-92
2022/03/21 01:34:38;;;;;;;37.33;26.70;;;;;;;;;;6161123;23;20242;-91
2022/03/21 01:37:09;;;;;;;43.17;26.57;;;;;;;;;;6161418;23;20230;-91
2022/03/21 01:39:38;;;;;;;20.93;16.50;;;;;;;;;;6185395;23;20245;-91
2022/03/21 01:42:08;;;;;;;19.90;16.93;;;;;;;;;;6162006;23;20207;-90
2022/03/21 01:44:39;;;;;;;2.90;2.67;;;;;;;;;;6163818;23;20175;-92
2022/03/21 01:47:09;;;;;;;7.10;2.80;;;;;;;;;;6164284;23;20181;-90
2022/03/21 01:49:38;;;;;;;2.53;2.43;;;;;;;;;;6164246;23;20179;-91
2022/03/21 01:52:06;;;;;;;15.97;11.50;;;;;;;;;;6164423;23;20186;-91
2022/03/21 01:57:34;;;;;;;34.80;25.07;;;;;;;;;;6112230;23;20213;-91
2022/03/21 02:00:04;;;;;;;22.10;16.87;;;;;;;;;;6164705;23;20214;-90
2022/03/21 02:02:33;;;;;;;2.20;2.20;;;;;;;;;;6163940;23;20175;-91
2022/03/21 02:05:02;;;;;;;10.90;8.90;;;;;;;;;;6163853;23;20195;-92
2022/03/21 02:07:31;;;;;;;10.57;5.63;;;;;;;;;;6163913;23;20179;-91
2022/03/21 02:09:59;;;;;;;4.40;4.00;;;;;;;;;;6163975;23;20171;-91
2022/03/21 02:12:28;;;;;;;1.10;1.10;;;;;;;;;;6164342;23;20269;-91
2022/03/21 02:14:59;;;;;;;25.27;17.63;;;;;;;;;;6163767;23;20261;-88
2022/03/21 02:17:27;;;;;;;4.70;4.40;;;;;;;;;;6163587;23;20175;-91
2022/03/21 02:19:57;;;;;;;8.17;7.37;;;;;;;;;;6163942;23;20179;-90
2022/03/21 02:22:29;;;;;;;1.23;1.23;;;;;;;;;;6163499;23;20171;-91
2022/03/21 02:25:03;;;;;;;0.90;0.90;;;;;;;;;;6163807;23;20178;-91
2022/03/21 02:27:34;;;;;;;2.37;2.27;;;;;;;;;;6164591;23;20196;-92
2022/03/21 02:30:03;;;;;;;4.33;4.17;;;;;;;;;;6164412;23;20207;-91
2022/03/21 02:32:32;;;;;;;4.20;3.90;;;;;;;;;;6163955;23;20178;-91
2022/03/21 02:35:01;;;;;;;8.00;7.23;;;;;;;;;;6164169;23;20175;-91
2022/03/21 02:37:30;;;;;;;16.00;8.47;;;;;;;;;;6164054;23;20175;-91
2022/03/21 02:39:58;;;;;;;1.20;1.20;;;;;;;;;;6163900;23;20273;-91
2022/03/21 02:42:27;;;;;;;4.07;3.77;;;;;;;;;;6189691;23;20218;-91
2022/03/21 02:44:57;;;;;;;13.97;9.73;;;;;;;;;;6164417;23;20226;-91
2022/03/21 02:47:25;;;;;;;12.43;11.23;;;;;;;;;;6163486;23;20178;-92
2022/03/21 02:49:54;;;;;;;5.03;4.47;;;;;;;;;;6163905;23;20202;-91
2022/03/21 02:52:24;;;;;;;3.53;3.33;;;;;;;;;;6163308;23;20202;-90
2022/03/21 02:54:53;;;;;;;9.20;8.27;;;;;;;;;;6161077;23;20199;-91
2022/03/21 02:57:21;;;;;;;10.03;8.93;;;;;;;;;;6187271;23;20601;-91
2022/03/21 02:59:50;;;;;;;9.73;8.33;;;;;;;;;;6162024;23;20258;-91
2022/03/21 03:02:20;;;;;;;4.27;3.97;;;;;;;;;;6162242;23;20234;-89
2022/03/21 03:04:48;;;;;;;50.90;34.47;;;;;;;;;;6162125;23;20195;-91
2022/03/21 03:07:17;;;;;;;49.53;34.70;;;;;;;;;;6162434;23;20179;-90
2022/03/21 03:09:46;;;;;;;14.50;12.07;;;;;;;;;;6162513;23;20175;-91
2022/03/21 03:12:14;;;;;;;43.10;30.87;;;;;;;;;;6162465;23;20199;-91
2022/03/21 03:14:43;;;;;;;10.40;9.23;;;;;;;;;;6188082;23;20217;-91
2022/03/21 03:17:11;;;;;;;35.43;23.73;;;;;;;;;;6161754;23;20206;-91
2022/03/21 03:19:41;;;;;;;9.93;8.90;;;;;;;;;;6161923;23;20207;-90
2022/03/21 03:22:11;;;;;;;5.90;5.53;;;;;;;;;;6161708;23;20202;-91
2022/03/21 03:24:40;;;;;;;6.03;4.30;;;;;;;;;;6162287;23;20179;-89
2022/03/21 03:27:08;;;;;;;4.13;3.73;;;;;;;;;;6161939;23;20198;-91
2022/03/21 03:29:37;;;;;;;7.53;6.43;;;;;;;;;;6161634;23;20171;-91
2022/03/21 03:32:06;;;;;;;4.47;4.17;;;;;;;;;;6161676;23;20175;-91
2022/03/21 03:34:35;;;;;;;7.20;2.90;;;;;;;;;;6162039;23;20175;-90
2022/03/21 03:37:06;;;;;;;1.93;1.90;;;;;;;;;;6162528;23;20201;-91
2022/03/21 03:39:35;;;;;;;3.20;2.90;;;;;;;;;;6161354;23;20181;-91
2022/03/21 03:42:03;;;;;;;26.30;17.33;;;;;;;;;;6186819;23;20199;-91
2022/03/21 03:44:32;;;;;;;50.60;37.93;;;;;;;;;;6160648;23;20182;-91
2022/03/21 03:47:00;;;;;;;50.93;36.17;;;;;;;;;;6161429;23;20171;-91
2022/03/21 03:49:29;;;;;;;42.17;33.23;;;;;;;;;;6161928;23;20181;-91
2022/03/21 03:51:57;;;;;;;41.37;31.60;;;;;;;;;;6161726;23;20171;-91
2022/03/21 03:54:27;;;;;;;59.53;42.73;;;;;;;;;;6161848;23;20179;-92
2022/03/21 03:56:58;;;;;;;54.47;41.23;;;;;;;;;;6161900;23;20201;-91
2022/03/21 03:59:26;;;;;;;51.57;31.93;;;;;;;;;;6161305;23;20206;-90
2022/03/21 04:01:55;;;;;;;60.40;41.63;;;;;;;;;;6187281;23;20289;-91
2022/03/21 04:04:24;;;;;;;44.97;28.17;;;;;;;;;;6161494;23;20255;-91
2022/03/21 04:06:54;;;;;;;48.37;32.53;;;;;;;;;;6161796;23;20182;-92
2022/03/21 04:09:22;;;;;;;32.53;19.53;;;;;;;;;;6161678;23;20190;-89
2022/03/21 04:11:52;;;;;;;30.23;21.67;;;;;;;;;;6187654;23;20163;-91
2022/03/21 04:14:22;;;;;;;43.40;29.27;;;;;;;;;;6161440;23;20254;-91
2022/03/21 04:16:53;;;;;;;9.57;8.63;;;;;;;;;;6187989;23;20250;-91
2022/03/21 04:19:22;;;;;;;2.43;2.40;;;;;;;;;;6161804;23;20201;-91
2022/03/21 04:21:51;;;;;;;0.90;0.90;;;;;;;;;;6161824;23;20219;-91
2022/03/21 04:24:20;;;;;;;23.13;20.90;;;;;;;;;;6188355;23;20175;-91
2022/03/21 04:26:48;;;;;;;37.97;28.63;;;;;;;;;;6187335;23;20167;-91
2022/03/21 04:29:19;;;;;;;49.03;33.13;;;;;;;;;;6160986;23;20239;-92
2022/03/21 04:31:47;;;;;;;32.97;23.87;;;;;;;;;;6161176;23;20182;-91
2022/03/21 04:34:16;;;;;;;52.27;34.10;;;;;;;;;;6160845;23;20175;-90
2022/03/21 04:36:48;;;;;;;57.33;36.20;;;;;;;;;;6161028;23;20179;-91
2022/03/21 04:39:17;;;;;;;41.40;28.53;;;;;;;;;;6161495;23;20183;-91
2022/03/21 04:41:45;;;;;;;63.43;44.07;;;;;;;;;;6161243;23;20253;-91
2022/03/21 04:44:14;;;;;;;58.80;44.70;;;;;;;;;;6160785;23;20197;-91
2022/03/21 04:46:43;;;;;;;65.77;45.43;;;;;;;;;;6160998;23;20238;-91
2022/03/21 04:49:12;;;;;;;59.93;44.73;;;;;;;;;;6160593;23;20179;-91
2022/03/21 04:51:41;;;;;;;61.03;46.47;;;;;;;;;;6160850;23;20209;-92
2022/03/21 04:54:09;;;;;;;58.53;43.97;;;;;;;;;;6161186;23;20175;-88
2022/03/21 04:56:38;;;;;;;56.70;45.27;;;;;;;;;;6161009;23;20175;-90
2022/03/21 04:59:07;;;;;;;62.50;45.97;;;;;;;;;;6161413;23;20182;-89
2022/03/21 05:01:36;;;;;;;59.60;48.03;;;;;;;;;;6160871;23;20195;-89
2022/03/21 05:04:08;;;;;;;59.03;49.63;;;;;;;;;;6160587;23;20198;-89
2022/03/21 05:06:36;;;;;;;60.67;45.00;;;;;;;;;;6160758;23;20179;-89
2022/03/21 05:09:05;;;;;;;58.60;44.37;;;;;;;;;;6159960;23;20221;-88
2022/03/21 05:11:34;;;;;;;60.50;47.00;;;;;;;;;;6186613;23;20179;-89
2022/03/21 05:14:02;;;;;;;47.50;37.93;;;;;;;;;;6161224;23;20179;-90
2022/03/21 05:16:32;;;;;;;47.97;33.23;;;;;;;;;;6160758;23;20235;-89
2022/03/21 05:19:01;;;;;;;34.20;27.90;;;;;;;;;;6160784;23;20175;-90
2022/03/21 05:21:31;;;;;;;40.63;30.47;;;;;;;;;;6161635;23;20266;-90
2022/03/21 05:32:19;;;;;;;53.20;36.80;;;;;;;;;;6160837;23;20214;-90
2022/03/21 05:37:36;;;;;;;49.80;34.10;;;;;;;;;;6187499;23;20171;-89
2022/03/21 05:42:52;;;;;;;34.03;24.07;;;;;;;;;;6162057;23;20211;-89
2022/03/21 05:45:21;;;;;;;3.63;3.33;;;;;;;;;;6161696;23;20202;-89
2022/03/21 05:50:39;;;;;;;3.03;2.60;;;;;;;;;;6161227;23;20206;-90
2022/03/21 05:53:09;;;;;;;2.83;2.50;;;;;;;;;;6161153;23;20206;-90
2022/03/21 05:55:38;;;;;;;2.83;2.63;;;;;;;;;;6162137;23;20175;-91
2022/03/21 05:58:06;;;;;;;1.17;1.17;;;;;;;;;;6161218;23;20257;-89
2022/03/21 06:00:36;;;;;;;1.47;1.47;;;;;;;;;;6161158;23;20257;-89
2022/03/21 06:03:08;;;;;;;3.17;3.00;;;;;;;;;;6161026;23;20253;-91
2022/03/21 06:05:36;;;;;;;22.63;16.83;;;;;;;;;;6161380;23;20218;-86
2022/03/21 06:08:05;;;;;;;10.30;6.40;;;;;;;;;;6161003;23;20183;-89
2022/03/21 06:10:37;;;;;;;12.93;11.50;;;;;;;;;;6160858;23;20211;-89
2022/03/21 06:13:06;;;;;;;34.37;23.20;;;;;;;;;;6160178;23;20171;-89
2022/03/21 06:15:35;;;;;;;6.97;6.33;;;;;;;;;;6187516;23;20167;-90
2022/03/21 06:18:09;;;;;;;38.07;25.03;;;;;;;;;;6187672;23;20172;-90
2022/03/21 06:20:40;;;;;;;0.90;0.90;;;;;;;;;;6161602;23;20179;-90
2022/03/21 06:23:09;;;;;;;13.70;8.63;;;;;;;;;;6161662;23;20187;-89
2022/03/21 06:25:41;;;;;;;2.80;2.70;;;;;;;;;;6161587;23;20222;-90
2022/03/21 06:28:10;;;;;;;4.20;4.00;;;;;;;;;;6161700;23;20183;-88
2022/03/21 06:30:39;;;;;;;3.63;3.43;;;;;;;;;;6162982;23;20175;-90
2022/03/21 06:33:12;;;;;;;2.23;2.07;;;;;;;;;;6162556;23;20206;-89
2022/03/21 06:35:43;;;;;;;6.90;6.23;;;;;;;;;;6163136;23;20203;-90
2022/03/21 06:38:12;;;;;;;11.97;10.67;;;;;;;;;;6162885;23;20179;-89
2022/03/21 06:40:46;;;;;;;15.43;10.40;;;;;;;;;;6162531;23;20179;-89
2022/03/21 06:43:15;;;;;;;2.93;2.83;;;;;;;;;;6188583;23;20253;-90
2022/03/21 06:45:47;;;;;;;2.83;2.63;;;;;;;;;;6163359;23;20293;-89
2022/03/21 06:48:16;;;;;;;7.83;6.67;;;;;;;;;;6163335;23;20206;-89
2022/03/21 06:50:46;;;;;;;24.03;5.10;;;;;;;;;;6162939;23;20186;-88
2022/03/21 06:53:14;;;;;;;6.53;6.07;;;;;;;;;;6162605;23;20175;-89
2022/03/21 06:55:43;;;;;;;1.93;1.60;;;;;;;;;;6163640;23;20179;-90
2022/03/21 06:58:14;;;;;;;4.57;4.30;;;;;;;;;;6188887;23;20167;-90
2022/03/21 07:00:43;;;;;;;1.50;1.50;;;;;;;;;;6163217;23;20258;-90
2022/03/21 07:03:14;;;;;;;10.43;7.93;;;;;;;;;;6163026;23;20198;-90
2022/03/21 07:05:44;;;;;;;17.50;14.73;;;;;;;;;;6162728;23;20309;-90
2022/03/21 07:08:13;;;;;;;36.43;23.87;;;;;;;;;;6162968;23;20171;-89
2022/03/21 07:10:44;;;;;;;34.23;22.77;;;;;;;;;;6187802;23;20271;-89
2022/03/21 07:13:15;;;;;;;45.60;31.93;;;;;;;;;;6162971;23;20198;-88
2022/03/21 07:15:44;;;;;;;29.30;21.43;;;;;;;;;;6163128;23;20246;-89
2022/03/21 07:18:13;;;;;;;37.83;28.57;;;;;;;;;;6163110;23;20189;-89
2022/03/21 07:20:43;;;;;;;37.93;27.13;;;;;;;;;;6162681;23;20225;-89
2022/03/21 07:23:11;;;;;;;27.63;18.83;;;;;;;;;;6162602;23;20202;-89
2022/03/21 07:25:40;;;;;;;48.80;34.33;;;;;;;;;;6187051;23;20270;-90
2022/03/21 07:28:10;;;;;;;29.43;21.03;;;;;;;;;;6162686;23;20183;-89
2022/03/21 07:30:40;;;;;;;47.47;33.33;;;;;;;;;;6162456;23;20203;-89
2022/03/21 07:33:09;;;;;;;9.93;7.57;;;;;;;;;;6163671;23;20178;-90
2022/03/21 07:35:38;;;;;;;3.10;3.00;;;;;;;;;;6163326;23;20206;-90
2022/03/21 07:38:07;;;;;;;1.50;1.50;;;;;;;;;;6161868;23;20199;-92
2022/03/21 07:43:57;;;;;;;15.67;12.23;;;;;;;;;;6128842;23;20199;-91
2022/03/21 14:04:41;;;;;;;0.77;0.77;;;;;;;;;;6186872;22;20217;-86
2022/03/21 14:07:10;;;;;;;4.23;3.73;;;;;;;;;;6185992;23;20181;-87
2022/03/21 14:09:39;;;;;;;10.97;5.43;;;;;;;;;;6183744;23;20273;-85
2022/03/21 14:12:25;;;;;;;;;;;;;;;;;;;;;
2022/03/21 14:15:22;;;;;;;14.37;9.13;;;;;;;;;;6185212;23;20181;-88
2022/03/21 14:17:55;;;;;;;7.93;5.73;;;;;;;;;;6183675;23;20192;-87
2022/03/21 14:20:25;;;;;;;5.73;4.43;;;;;;;;;;6184872;23;20186;-87
2022/03/21 14:22:54;;;;;;;8.50;5.73;;;;;;;;;;6186927;23;20186;-88
2022/03/21 14:28:14;;;;;;;9.43;7.07;;;;;;;;;;6185117;23;20182;-87
2022/03/21 14:31:09;;;;;;;7.87;4.63;;;;;;;;;;6192355;23;20175;-89
2022/03/21 14:33:44;;;;;;;4.57;3.97;;;;;;;;;;6184838;23;20217;-86
2022/03/21 14:36:23;;;;;;;11.63;8.63;;;;;;;;;;6185492;23;20181;-87
2022/03/21 14:38:52;;;;;;;13.20;8.93;;;;;;;;;;6184680;23;20185;-89
2022/03/21 14:41:34;;;;;;;12.67;8.67;;;;;;;;;;6212711;23;20178;-89
2022/03/21 14:47:42;;;;;;;13.53;8.70;;;;;;;;;;6175383;23;20197;-88
2022/03/21 14:58:24;;;;;;;9.87;5.70;;;;;;;;;;6043964;23;20205;-88
2022/03/21 15:01:36;;;;;;;5.63;5.13;;;;;;;;;;6037409;23;20190;-88
2022/03/21 15:04:07;;;;;;;6.17;4.80;;;;;;;;;;6191782;23;20200;-90
2022/03/21 15:35:28;;;;;;;7.90;5.10;;;;;;;;;;5783913;23;20174;-90
2022/03/21 15:44:04;;;;;;;4.57;3.70;;;;;;;;;;6070743;23;20285;-90
2022/03/21 15:53:22;;;;;;;12.60;9.07;;;;;;;;;;6069742;23;20179;-90
2022/03/21 15:56:00;;;;;;;16.93;10.10;;;;;;;;;;6071555;23;20179;-90
2022/03/21 15:58:38;;;;;;;10.60;8.13;;;;;;;;;;6072185;23;20183;-90
2022/03/21 16:01:08;;;;;;;16.77;9.37;;;;;;;;;;6071783;23;20179;-90
2022/03/21 16:03:49;;;;;;;11.07;7.17;;;;;;;;;;6070691;23;20199;-89
2022/03/21 16:06:21;;;;;;;13.93;10.70;;;;;;;;;;6178433;23;20209;-87
2022/03/21 16:30:07;;;;;;;16.57;10.93;;;;;;;;;;6179579;23;20285;-90
2022/03/21 16:32:43;;;;;;;16.00;10.43;;;;;;;;;;6159623;23;20220;-89
2022/03/21 16:35:39;;;;;;;9.07;7.77;;;;;;;;;;6159315;23;20195;-88
2022/03/21 16:41:40;;;;;;;15.17;9.77;;;;;;;;;;6143148;23;20178;-89
2022/03/21 16:44:09;;;;;;;7.07;4.03;;;;;;;;;;6183805;23;20192;-88
2022/03/21 16:46:51;;;;;;;4.53;4.13;;;;;;;;;;6158260;23;20184;-89
2022/03/21 16:49:25;;;;;;;6.83;4.33;;;;;;;;;;6185520;23;20260;-87
2022/03/21 16:51:56;;;;;;;15.90;9.67;;;;;;;;;;6157858;23;20179;-86
2022/03/21 16:54:25;;;;;;;11.23;7.20;;;;;;;;;;6156704;23;20176;-88
2022/03/21 16:56:58;;;;;;;8.67;6.47;;;;;;;;;;6158088;23;20179;-87
2022/03/21 16:59:30;;;;;;;6.83;3.77;;;;;;;;;;6183901;23;20176;-86
2022/03/21 17:02:00;;;;;;;7.63;5.23;;;;;;;;;;6185213;23;20173;-86
2022/03/21 17:04:32;;;;;;;5.93;3.43;;;;;;;;;;6159198;23;20224;-86
2022/03/21 17:07:03;;;;;;;2.20;2.03;;;;;;;;;;6159378;23;20200;-87
2022/03/21 17:09:31;;;;;;;5.40;4.00;;;;;;;;;;6159276;23;20266;-88
2022/03/21 17:12:00;;;;;;;6.83;4.63;;;;;;;;;;6185667;23;20173;-86
2022/03/21 17:14:30;;;;;;;5.57;5.07;;;;;;;;;;6159313;23;20179;-87
2022/03/21 17:17:03;;;;;;;5.73;3.20;;;;;;;;;;6159037;23;20179;-87
2022/03/21 17:25:07;;;;;;;3.87;3.47;;;;;;;;;;6159077;23;20195;-87
2022/03/21 17:27:36;;;;;;;5.60;5.20;;;;;;;;;;6159593;23;20183;-87
2022/03/21 17:30:07;;;;;;;10.13;6.80;;;;;;;;;;6184723;23;20448;-87
2022/03/21 17:32:38;;;;;;;3.93;3.60;;;;;;;;;;6159046;23;20179;-87
2022/03/21 17:35:08;;;;;;;3.83;3.60;;;;;;;;;;6159302;23;20203;-87
2022/03/21 17:37:38;;;;;;;2.00;1.90;;;;;;;;;;6159049;23;20244;-87
2022/03/21 17:40:08;;;;;;;3.03;2.83;;;;;;;;;;6158920;23;20180;-87
2022/03/21 17:42:39;;;;;;;5.57;5.03;;;;;;;;;;6159335;23;20235;-87
2022/03/21 17:45:10;;;;;;;3.93;2.73;;;;;;;;;;6159341;23;20191;-87
2022/03/21 17:47:45;;;;;;;10.57;9.37;;;;;;;;;;6159463;23;20257;-87
2022/03/21 17:50:14;;;;;;;10.30;7.50;;;;;;;;;;6159572;23;20183;-87
2022/03/21 17:52:44;;;;;;;17.80;7.60;;;;;;;;;;6159637;23;20250;-87
2022/03/21 17:55:14;;;;;;;3.80;2.97;;;;;;;;;;6159592;23;20171;-88
2022/03/21 17:57:43;;;;;;;1.43;1.43;;;;;;;;;;6159380;23;20210;-87
2022/03/21 18:00:14;;;;;;;2.43;1.53;;;;;;;;;;6159299;23;20179;-87
2022/03/21 18:02:45;;;;;;;7.20;6.67;;;;;;;;;;6159628;23;20267;-87
2022/03/21 18:05:15;;;;;;;1.83;1.73;;;;;;;;;;6159214;23;20227;-87
2022/03/21 18:07:44;;;;;;;1.33;1.33;;;;;;;;;;6159011;23;20175;-87
2022/03/21 18:10:15;;;;;;;3.53;3.27;;;;;;;;;;6158760;23;20179;-87
2022/03/21 18:12:44;;;;;;;2.17;2.10;;;;;;;;;;6159033;23;20271;-87
2022/03/21 18:15:14;;;;;;;1.13;1.13;;;;;;;;;;6158845;23;20197;-87
2022/03/21 18:17:46;;;;;;;2.33;2.23;;;;;;;;;;6159211;23;20175;-87
2022/03/21 18:20:17;;;;;;;4.57;4.07;;;;;;;;;;6159401;23;20179;-87
2022/03/21 18:22:48;;;;;;;11.10;8.33;;;;;;;;;;6159419;23;20179;-87
2022/03/21 18:25:18;;;;;;;0.60;0.60;;;;;;;;;;6160270;23;20257;-87
2022/03/21 18:27:47;;;;;;;3.37;3.07;;;;;;;;;;6160630;23;20179;-87
2022/03/21 18:30:17;;;;;;;2.73;2.27;;;;;;;;;;6160424;23;20180;-87
2022/03/21 18:32:48;;;;;;;4.67;2.90;;;;;;;;;;6186554;23;20179;-87
2022/03/21 18:35:18;;;;;;;1.70;1.70;;;;;;;;;;6160844;23;20167;-88
2022/03/21 18:37:47;;;;;;;9.80;6.67;;;;;;;;;;6161232;23;20175;-88
2022/03/21 18:40:17;;;;;;;3.50;2.07;;;;;;;;;;6161228;23;20180;-88
2022/03/21 18:42:46;;;;;;;3.53;3.33;;;;;;;;;;6160878;23;20176;-88
2022/03/21 18:45:18;;;;;;;8.93;6.63;;;;;;;;;;6187048;23;20191;-87
2022/03/21 18:47:50;;;;;;;3.77;2.30;;;;;;;;;;6161680;23;20207;-87
2022/03/21 18:50:19;;;;;;;5.63;3.80;;;;;;;;;;6161270;23;20202;-88
2022/03/21 18:52:50;;;;;;;6.67;4.63;;;;;;;;;;6161076;23;20262;-88
2022/03/21 18:55:21;;;;;;;9.13;5.53;;;;;;;;;;6187148;23;20222;-88
2022/03/21 18:57:52;;;;;;;9.83;7.27;;;;;;;;;;6187138;23;20198;-87
2022/03/21 19:00:21;;;;;;;4.13;3.73;;;;;;;;;;6187169;23;20171;-88
2022/03/21 19:02:53;;;;;;;3.40;3.10;;;;;;;;;;6161585;23;20225;-87
2022/03/21 19:05:23;;;;;;;1.90;1.87;;;;;;;;;;6161075;23;20218;-87
2022/03/21 19:07:56;;;;;;;5.37;3.83;;;;;;;;;;6160692;23;20182;-87
2022/03/21 19:10:27;;;;;;;3.03;2.43;;;;;;;;;;6161192;23;20288;-88
2022/03/21 19:12:57;;;;;;;14.83;7.07;;;;;;;;;;6161524;23;20199;-88
2022/03/21 19:15:27;;;;;;;2.23;2.13;;;;;;;;;;6187290;23;20167;-88
2022/03/21 19:17:59;;;;;;;3.23;1.43;;;;;;;;;;6161076;23;20179;-88
2022/03/21 19:20:30;;;;;;;3.87;3.43;;;;;;;;;;6160940;23;20183;-87
2022/03/21 19:22:59;;;;;;;4.33;4.03;;;;;;;;;;6160940;23;20182;-88
2022/03/21 19:25:30;;;;;;;5.50;5.13;;;;;;;;;;6160406;23;20262;-88
2022/03/21 19:28:01;;;;;;;1.90;1.83;;;;;;;;;;6160645;23;20179;-88
2022/03/21 19:30:31;;;;;;;3.80;3.50;;;;;;;;;;6160949;23;20179;-88
2022/03/21 19:33:02;;;;;;;3.93;3.73;;;;;;;;;;6161184;23;20171;-87
2022/03/21 19:35:32;;;;;;;3.60;3.37;;;;;;;;;;6160680;23;20175;-88
2022/03/21 19:38:01;;;;;;;5.43;3.73;;;;;;;;;;6160649;23;20231;-88
2022/03/21 19:40:33;;;;;;;2.50;2.30;;;;;;;;;;6160870;23;20181;-87
2022/03/21 19:43:05;;;;;;;4.50;4.10;;;;;;;;;;6160948;23;20181;-88
2022/03/21 19:45:36;;;;;;;1.03;1.03;;;;;;;;;;6160435;23;20225;-87
2022/03/21 19:48:08;;;;;;;3.27;2.97;;;;;;;;;;6160664;23;20179;-88
2022/03/21 19:50:37;;;;;;;3.47;3.13;;;;;;;;;;6186974;23;20194;-88
2022/03/21 19:53:09;;;;;;;2.33;2.10;;;;;;;;;;6187173;23;20174;-88
2022/03/21 19:55:43;;;;;;;2.07;1.97;;;;;;;;;;6160594;23;20210;-88
2022/03/21 19:58:14;;;;;;;4.87;4.40;;;;;;;;;;6160786;23;20182;-87
2022/03/21 20:00:44;;;;;;;4.63;2.67;;;;;;;;;;6160660;23;20181;-87
2022/03/21 20:03:15;;;;;;;1.73;1.73;;;;;;;;;;6160107;23;20270;-88
2022/03/21 20:05:46;;;;;;;0.70;0.70;;;;;;;;;;6186198;23;20179;-87
2022/03/21 20:08:16;;;;;;;3.10;2.90;;;;;;;;;;6160114;23;20173;-87
2022/03/21 20:10:49;;;;;;;0.70;0.70;;;;;;;;;;6160042;23;20174;-87
2022/03/21 20:13:18;;;;;;;0.60;0.60;;;;;;;;;;6186221;23;20230;-87
2022/03/21 20:15:48;;;;;;;2.10;2.00;;;;;;;;;;6160224;23;20179;-88
2022/03/21 20:18:19;;;;;;;2.50;2.40;;;;;;;;;;6160775;23;20182;-87
2022/03/21 20:20:48;;;;;;;8.03;2.97;;;;;;;;;;6160613;23;20182;-87
2022/03/21 20:23:23;;;;;;;5.73;5.40;;;;;;;;;;6186671;23;20167;-87
2022/03/21 20:25:53;;;;;;;0.83;0.83;;;;;;;;;;6160365;23;20185;-88
2022/03/21 20:28:22;;;;;;;2.93;2.23;;;;;;;;;;6160320;23;20257;-88
2022/03/21 20:30:52;;;;;;;6.87;5.43;;;;;;;;;;6154907;23;20236;-87
2022/03/21 20:33:23;;;;;;;2.70;2.60;;;;;;;;;;6155474;23;20176;-87
2022/03/21 20:35:53;;;;;;;3.37;1.93;;;;;;;;;;6155713;23;20186;-87
2022/03/21 20:38:23;;;;;;;0.90;0.90;;;;;;;;;;6157314;23;20187;-88
2022/03/21 20:40:52;;;;;;;0.93;0.93;;;;;;;;;;6181018;23;20186;-88
2022/03/21 20:43:23;;;;;;;3.23;2.83;;;;;;;;;;6181110;23;20265;-87
2022/03/21 20:45:52;;;;;;;3.43;3.33;;;;;;;;;;6157636;23;20167;-87
2022/03/21 20:48:24;;;;;;;2.97;1.70;;;;;;;;;;6156864;23;20172;-88
2022/03/21 20:50:53;;;;;;;4.87;4.50;;;;;;;;;;6155084;23;20258;-88
2022/03/21 20:53:23;;;;;;;1.40;1.37;;;;;;;;;;6155034;23;20217;-87
2022/03/21 20:55:52;;;;;;;2.63;2.43;;;;;;;;;;6155320;23;20266;-87
2022/03/21 20:58:21;;;;;;;3.40;3.20;;;;;;;;;;6179937;23;20233;-87
2022/03/21 21:00:51;;;;;;;1.70;1.27;;;;;;;;;;6156450;23;20176;-87
2022/03/21 21:03:20;;;;;;;2.73;2.63;;;;;;;;;;6155007;23;20242;-87
2022/03/21 21:05:51;;;;;;;8.40;3.80;;;;;;;;;;6154892;23;20191;-88
2022/03/21 21:08:21;;;;;;;2.17;2.07;;;;;;;;;;6154934;23;20195;-87
2022/03/21 21:10:55;;;;;;;1.17;1.13;;;;;;;;;;6154902;23;20179;-87
2022/03/21 21:13:26;;;;;;;3.27;2.60;;;;;;;;;;6154958;23;20175;-87
2022/03/21 21:15:56;;;;;;;6.83;4.90;;;;;;;;;;6155220;23;20182;-88
2022/03/21 21:18:26;;;;;;;3.20;2.47;;;;;;;;;;6155049;23;20202;-87
2022/03/21 21:20:56;;;;;;;5.80;5.37;;;;;;;;;;6156122;23;20171;-88
2022/03/21 21:23:27;;;;;;;1.07;1.07;;;;;;;;;;6154523;23;20207;-87
2022/03/21 21:25:57;;;;;;;1.57;1.57;;;;;;;;;;6179263;23;20179;-87
2022/03/21 21:28:27;;;;;;;2.33;2.00;;;;;;;;;;6155791;23;20191;-88
2022/03/21 21:30:57;;;;;;;0.70;0.70;;;;;;;;;;6160279;23;20281;-88
2022/03/21 21:33:27;;;;;;;1.47;1.37;;;;;;;;;;6160247;23;20179;-88
2022/03/21 21:35:57;;;;;;;5.20;2.43;;;;;;;;;;6186130;23;20246;-88
2022/03/21 21:38:26;;;;;;;1.57;1.57;;;;;;;;;;6159740;23;20198;-88
2022/03/21 21:40:55;;;;;;;2.53;2.33;;;;;;;;;;6159834;23;20187;-88
2022/03/21 21:43:24;;;;;;;3.70;2.33;;;;;;;;;;6159357;23;20178;-88
2022/03/21 21:45:52;;;;;;;0.83;0.83;;;;;;;;;;6159895;23;20264;-88
2022/03/21 21:48:24;;;;;;;2.07;1.97;;;;;;;;;;6159664;23;20198;-88
2022/03/21 21:50:52;;;;;;;1.27;1.27;;;;;;;;;;6185564;23;20178;-88
2022/03/21 21:53:23;;;;;;;0.93;0.93;;;;;;;;;;6185477;23;20167;-88
2022/03/21 21:55:53;;;;;;;2.70;2.60;;;;;;;;;;6159709;23;20178;-88
2022/03/21 21:58:22;;;;;;;2.27;1.30;;;;;;;;;;6159696;23;20199;-87
2022/03/21 22:00:52;;;;;;;5.30;4.40;;;;;;;;;;6187747;23;20194;-88
2022/03/21 22:03:21;;;;;;;13.50;7.90;;;;;;;;;;6161141;23;20202;-87
2022/03/21 22:05:52;;;;;;;1.80;1.70;;;;;;;;;;6161322;23;20240;-88
2022/03/21 22:08:21;;;;;;;3.80;3.60;;;;;;;;;;6161571;23;20203;-87
2022/03/21 22:10:51;;;;;;;1.97;1.87;;;;;;;;;;6161814;23;20265;-87
2022/03/21 22:13:20;;;;;;;10.27;5.70;;;;;;;;;;6161199;23;20197;-87
2022/03/21 22:15:49;;;;;;;2.20;2.13;;;;;;;;;;6161318;23;20181;-88
2022/03/21 22:18:19;;;;;;;3.50;3.23;;;;;;;;;;6161336;23;20204;-88
2022/03/21 22:20:48;;;;;;;9.70;6.73;;;;;;;;;;6161268;23;20199;-88
2022/03/21 22:23:23;;;;;;;7.80;6.10;;;;;;;;;;6161780;23;20222;-87
2022/03/21 22:25:53;;;;;;;4.63;4.03;;;;;;;;;;6161636;23;20172;-88
2022/03/21 22:28:22;;;;;;;2.67;2.47;;;;;;;;;;6161710;23;20227;-88
2022/03/21 22:30:52;;;;;;;14.20;9.00;;;;;;;;;;6160907;23;20215;-88
2022/03/21 22:33:22;;;;;;;3.53;3.30;;;;;;;;;;6161499;23;20180;-88
2022/03/21 22:35:52;;;;;;;0.80;0.80;;;;;;;;;;6187547;23;20183;-87
2022/03/21 22:38:20;;;;;;;2.83;2.17;;;;;;;;;;6161036;23;20189;-88
2022/03/21 22:49:09;;;;;;;3.13;2.87;;;;;;;;;;6161024;23;20294;-88
2022/03/21 22:51:38;;;;;;;5.97;2.30;;;;;;;;;;6187435;23;20173;-88
2022/03/21 22:54:09;;;;;;;4.90;2.47;;;;;;;;;;6161250;23;20273;-87
2022/03/21 22:56:38;;;;;;;1.30;1.30;;;;;;;;;;6160876;23;20184;-88
2022/03/21 22:59:08;;;;;;;5.77;4.17;;;;;;;;;;6160407;23;20173;-88
2022/03/21 23:01:36;;;;;;;1.10;1.10;;;;;;;;;;6161650;23;20267;-88
2022/03/21 23:04:09;;;;;;;1.53;1.53;;;;;;;;;;6187144;23;20194;-87
2022/03/21 23:06:38;;;;;;;2.10;1.20;;;;;;;;;;6161424;23;20177;-88
2022/03/21 23:09:07;;;;;;;0.90;0.90;;;;;;;;;;6160597;23;20199;-87